Time;durP1;ratioP1;P1;durP2;ratioP2;P2;SDS_P1;SDS_P2;PMS_P1;PMS_P2;Temp;Humidity;BMP_temperature;BMP_pressure;BME280_temperature;BME280_humidity;BME280_pressure;Samples;Min_cycle;Max_cycle;Signal;HPM_P1;HPM_P2
2021/08/20 00:00:46;;;;;;;;;;;;;;;21.70;50.63;100758.00;5117027;28;19954;-59
2021/08/20 00:03:14;;;;;;;;;;;;;;;21.70;50.70;100760.69;5108658;27;19950;-58
2021/08/20 00:05:42;;;;;;;;;;;;;;;21.70;50.54;100757.16;5106648;27;19939;-58
2021/08/20 00:08:10;;;;;;;;;;;;;;;21.69;50.63;100758.97;5105323;27;19927;-57
2021/08/20 00:10:38;;;;;;;;;;;;;;;21.70;50.64;100757.16;5105544;27;19931;-59
2021/08/20 00:13:06;;;;;;;;;;;;;;;21.70;50.78;100757.16;5111593;27;20022;-58
2021/08/20 00:15:33;;;;;;;;;;;;;;;21.70;50.90;100758.00;5115705;28;20020;-59
2021/08/20 00:18:04;;;;;;;;;;;;;;;21.70;50.69;100763.38;5110817;27;20023;-59
2021/08/20 00:20:32;;;;;;;;;;;;;;;21.70;51.12;100759.84;5110119;27;19984;-54
2021/08/20 00:23:00;;;;;;;;;;;;;;;21.70;51.04;100759.84;5101224;27;19936;-58
2021/08/20 00:25:28;;;;;;;;;;;;;;;21.70;51.19;100758.00;5111729;28;19931;-60
2021/08/20 00:27:57;;;;;;;;;;;;;;;21.70;51.26;100755.31;5114738;27;19924;-59
2021/08/20 00:30:25;;;;;;;;;;;;;;;21.69;51.02;100756.28;5110097;27;19991;-58
2021/08/20 00:32:53;;;;;;;;;;;;;;;21.68;51.31;100751.91;5142268;27;19928;-58
2021/08/20 00:35:23;;;;;;;;;;;;;;;21.69;51.30;100753.59;5104199;27;19932;-58
2021/08/20 00:37:51;;;;;;;;;;;;;;;21.68;51.38;100746.50;5102546;27;19930;-59
2021/08/20 00:40:19;;;;;;;;;;;;;;;21.69;51.30;100758.97;5113963;27;19931;-60
2021/08/20 00:42:48;;;;;;;;;;;;;;;21.67;51.01;100750.16;5108756;27;20018;-59
2021/08/20 00:45:17;;;;;;;;;;;;;;;21.67;51.05;100755.56;5116209;27;20981;-61
2021/08/20 00:47:45;;;;;;;;;;;;;;;21.65;51.15;100760.19;5104851;28;19953;-59
2021/08/20 00:50:13;;;;;;;;;;;;;;;21.65;51.22;100754.78;5103599;27;19932;-56
2021/08/20 00:52:42;;;;;;;;;;;;;;;21.65;51.14;100757.47;5107016;27;19928;-55
2021/08/20 00:55:13;;;;;;;;;;;;;;;21.65;50.90;100762.88;5115073;27;19928;-57
2021/08/20 00:57:42;;;;;;;;;;;;;;;21.65;51.31;100754.78;5110713;28;20060;-58
2021/08/20 01:00:10;;;;;;;;;;;;;;;21.65;51.09;100762.88;5111521;27;19928;-54
2021/08/20 01:02:39;;;;;;;;;;;;;;;21.64;51.07;100758.47;5100953;28;20004;-59
2021/08/20 01:05:08;;;;;;;;;;;;;;;21.64;51.25;100761.19;5105443;27;19943;-59
2021/08/20 01:07:37;;;;;;;;;;;;;;;21.64;51.13;100766.56;5108680;27;19924;-59
2021/08/20 01:10:09;;;;;;;;;;;;;;;21.64;51.51;100763.88;5111940;27;19924;-57
2021/08/20 01:12:37;;;;;;;;;;;;;;;21.63;51.10;100763.94;5113641;27;19950;-59
2021/08/20 01:15:05;;;;;;;;;;;;;;;21.63;51.48;100756.75;5106060;27;19936;-58
2021/08/20 01:17:34;;;;;;;;;;;;;;;21.63;50.94;100763.94;5095318;27;20344;-55
2021/08/20 01:20:03;;;;;;;;;;;;;;;21.62;51.29;100757.72;5106039;28;19932;-59
2021/08/20 01:22:31;;;;;;;;;;;;;;;21.62;51.18;100760.41;5111892;27;20349;-59
2021/08/20 01:25:02;;;;;;;;;;;;;;;21.62;50.93;100764.94;5107541;28;19924;-59
2021/08/20 01:27:33;;;;;;;;;;;;;;;21.60;51.13;100767.72;5105555;27;20229;-59
2021/08/20 01:30:01;;;;;;;;;;;;;;;21.62;51.37;100764.94;5107623;27;19947;-59
2021/08/20 01:32:29;;;;;;;;;;;;;;;21.61;51.40;100771.28;5099374;27;19927;-59
2021/08/20 01:34:57;;;;;;;;;;;;;;;21.61;50.90;100766.75;5101092;28;19995;-59
2021/08/20 01:37:26;;;;;;;;;;;;;;;21.61;51.12;100774.84;5107381;28;19950;-58
2021/08/20 01:39:54;;;;;;;;;;;;;;;21.61;51.47;100774.84;5137685;27;19995;-59
2021/08/20 01:42:24;;;;;;;;;;;;;;;21.62;51.54;100775.72;5105792;27;19924;-61
2021/08/20 01:44:53;;;;;;;;;;;;;;;21.62;51.39;100770.34;5102051;27;19978;-59
2021/08/20 01:47:21;;;;;;;;;;;;;;;21.62;51.60;100771.19;5101286;27;19924;-58
2021/08/20 01:49:49;;;;;;;;;;;;;;;21.61;51.51;100774.00;5110684;28;19939;-59
2021/08/20 01:52:17;;;;;;;;;;;;;;;21.62;51.52;100768.50;5108370;28;20031;-58
2021/08/20 01:54:47;;;;;;;;;;;;;;;21.61;51.36;100776.69;5103541;28;19943;-58
2021/08/20 01:57:15;;;;;;;;;;;;;;;21.60;51.72;100773.13;5104177;28;20090;-57
2021/08/20 01:59:44;;;;;;;;;;;;;;;21.61;51.80;100774.00;5109068;27;19950;-59
2021/08/20 02:02:13;;;;;;;;;;;;;;;21.60;51.60;100775.81;5099748;27;19950;-58
2021/08/20 02:04:41;;;;;;;;;;;;;;;21.59;51.59;100784.00;5105911;28;19924;-57
2021/08/20 02:07:09;;;;;;;;;;;;;;;21.59;51.84;100781.31;5116154;28;19924;-60
2021/08/20 02:09:40;;;;;;;;;;;;;;;21.59;51.71;100784.00;5112290;27;20041;-58
2021/08/20 02:12:08;;;;;;;;;;;;;;;21.58;51.62;100780.47;5105403;27;19947;-58
2021/08/20 02:14:48;;;;;;;;;;;;;;;21.60;51.73;100783.03;5129808;27;19924;-58
2021/08/20 02:17:16;;;;;;;;;;;;;;;21.59;51.89;100779.50;5106965;28;19928;-59
2021/08/20 02:19:45;;;;;;;;;;;;;;;21.59;51.63;100779.50;5109458;27;19928;-59
2021/08/20 02:22:13;;;;;;;;;;;;;;;21.59;51.79;100776.81;5107213;28;19924;-58
2021/08/20 02:24:46;;;;;;;;;;;;;;;21.60;52.07;100781.19;5106383;27;19928;-59
2021/08/20 02:27:14;;;;;;;;;;;;;;;21.59;51.91;100782.19;5104666;28;19928;-54
2021/08/20 02:29:44;;;;;;;;;;;;;;;21.59;52.00;100778.59;5104413;28;19985;-59
2021/08/20 02:32:14;;;;;;;;;;;;;;;21.59;52.09;100784.00;5105559;28;19934;-59
2021/08/20 02:34:42;;;;;;;;;;;;;;;21.58;52.21;100779.56;5103713;28;19928;-59
2021/08/20 02:37:10;;;;;;;;;;;;;;;21.58;52.17;100783.16;5104882;28;19928;-59
2021/08/20 02:39:38;;;;;;;;;;;;;;;21.55;52.03;100784.22;5102119;28;19967;-59
2021/08/20 02:42:06;;;;;;;;;;;;;;;21.55;51.67;100784.22;5099656;28;19950;-55
2021/08/20 02:44:35;;;;;;;;;;;;;;;21.55;51.95;100788.72;5107071;28;19927;-59
2021/08/20 02:47:04;;;;;;;;;;;;;;;21.53;51.94;100783.44;5106804;28;19943;-58
2021/08/20 02:49:33;;;;;;;;;;;;;;;21.53;51.98;100788.81;5105968;28;19963;-57
2021/08/20 02:52:02;;;;;;;;;;;;;;;21.54;51.89;100801.34;5111206;28;20441;-58
2021/08/20 02:54:34;;;;;;;;;;;;;;;21.54;51.96;100797.81;5104134;28;20022;-58
2021/08/20 02:57:02;;;;;;;;;;;;;;;21.54;51.74;100793.28;5111193;28;19924;-58
2021/08/20 02:59:32;;;;;;;;;;;;;;;21.54;52.05;100790.59;5143946;27;19927;-59
2021/08/20 03:02:03;;;;;;;;;;;;;;;21.54;51.88;100784.34;5101079;28;19931;-57
2021/08/20 03:04:31;;;;;;;;;;;;;;;21.54;51.54;100787.88;5112545;28;19939;-58
2021/08/20 03:07:00;;;;;;;;;;;;;;;21.54;51.88;100795.97;5099434;28;20430;-58
2021/08/20 03:09:36;;;;;;;;;;;;;;;21.55;51.92;100794.13;5102512;28;19932;-58
2021/08/20 03:12:05;;;;;;;;;;;;;;;21.54;51.93;100793.28;5102852;28;19924;-54
2021/08/20 03:14:39;;;;;;;;;;;;;;;21.54;52.09;100793.28;5106517;28;19938;-59
2021/08/20 03:17:07;;;;;;;;;;;;;;;21.54;51.84;100800.50;5117569;28;19928;-59
2021/08/20 03:19:35;;;;;;;;;;;;;;;21.54;51.98;100803.19;5107344;28;19991;-58
2021/08/20 03:22:05;;;;;;;;;;;;;;;21.52;52.09;100811.34;5105993;28;19947;-57
2021/08/20 03:24:34;;;;;;;;;;;;;;;21.52;51.98;100802.41;5106967;28;19928;-59
2021/08/20 03:27:03;;;;;;;;;;;;;;;21.51;52.02;100806.94;5105416;28;20031;-58
2021/08/20 03:29:31;;;;;;;;;;;;;;;21.51;51.90;100804.25;5098284;28;19928;-59
2021/08/20 03:32:19;;;;;;;;;;;;;;;21.52;52.08;100800.59;5102751;28;19924;-58
2021/08/20 03:34:54;;;;;;;;;;;;;;;21.51;52.02;100809.63;5117085;28;19931;-58
2021/08/20 03:37:24;;;;;;;;;;;;;;;21.51;51.94;100808.75;5096720;28;20558;-59
2021/08/20 03:39:54;;;;;;;;;;;;;;;21.51;51.94;100812.31;5108946;28;19966;-59
2021/08/20 03:42:23;;;;;;;;;;;;;;;21.52;51.97;100815.84;5108437;28;19927;-57
2021/08/20 03:45:14;;;;;;;;;;;;;;;21.51;51.97;100816.81;5119133;27;19936;-59
2021/08/20 03:47:44;;;;;;;;;;;;;;;21.51;52.20;100824.88;5130288;27;20468;-59
2021/08/20 03:50:12;;;;;;;;;;;;;;;21.50;52.20;100821.34;5102036;28;19924;-58
2021/08/20 03:52:42;;;;;;;;;;;;;;;21.51;52.14;100830.28;5095231;28;19962;-57
2021/08/20 03:55:10;;;;;;;;;;;;;;;21.50;52.35;100826.72;5101821;28;19928;-58
2021/08/20 03:57:49;;;;;;;;;;;;;;;21.49;52.31;100829.53;5103350;28;19932;-59
2021/08/20 04:00:18;;;;;;;;;;;;;;;21.49;52.44;100833.06;5103717;28;19934;-59
2021/08/20 04:02:51;;;;;;;;;;;;;;;21.48;52.37;100831.34;5110525;28;19924;-59
2021/08/20 04:05:22;;;;;;;;;;;;;;;21.48;52.55;100834.03;5107204;27;19959;-57
2021/08/20 04:08:09;;;;;;;;;;;;;;;21.47;52.47;100828.78;5133701;27;19923;-58
2021/08/20 04:11:05;;;;;;;;;;;;;;;21.47;52.32;100829.66;5106219;27;19947;-58
2021/08/20 04:13:41;;;;;;;;;;;;;;;21.47;52.27;100836.84;5117317;27;19969;-58
2021/08/20 04:16:09;;;;;;;;;;;;;;;21.46;52.18;100837.81;5108725;28;19928;-58
2021/08/20 04:18:40;;;;;;;;;;;;;;;21.46;52.25;100827.94;5104355;27;19943;-58
2021/08/20 04:21:09;;;;;;;;;;;;;;;21.47;52.24;100842.22;5103957;28;20291;-58
2021/08/20 04:23:40;;;;;;;;;;;;;;;21.47;51.94;100842.22;5107876;27;19924;-58
2021/08/20 04:26:12;;;;;;;;;;;;;;;21.47;52.15;100845.81;5111418;27;19924;-56
2021/08/20 04:29:00;;;;;;;;;;;;;;;21.47;52.09;100845.81;5106624;27;19928;-58
2021/08/20 04:31:42;;;;;;;;;;;;;;;21.47;52.24;100850.31;5130570;27;19935;-58
2021/08/20 04:34:29;;;;;;;;;;;;;;;21.47;52.34;100856.56;5107134;27;19947;-58
2021/08/20 04:37:13;;;;;;;;;;;;;;;21.47;51.96;100853.00;5113368;28;19928;-61
2021/08/20 04:40:07;;;;;;;;;;;;;;;21.47;52.22;100850.31;5069728;27;19932;-57
2021/08/20 04:42:59;;;;;;;;;;;;;;;21.45;52.39;100849.56;5107157;28;20053;-58
2021/08/20 04:45:44;;;;;;;;;;;;;;;21.46;52.18;100852.16;5136374;27;19937;-59
2021/08/20 04:48:34;;;;;;;;;;;;;;;21.46;52.06;100856.66;5096269;28;19928;-59
2021/08/20 04:51:31;;;;;;;;;;;;;;;21.45;52.21;100854.94;5106672;28;19959;-57
2021/08/20 04:54:16;;;;;;;;;;;;;;;21.44;52.35;100856.75;5114592;28;19985;-58
2021/08/20 04:57:00;;;;;;;;;;;;;;;21.46;52.32;100856.66;5108990;27;19961;-58
2021/08/20 04:59:30;;;;;;;;;;;;;;;21.44;52.22;100856.75;5136318;27;19982;-59
2021/08/20 05:01:58;;;;;;;;;;;;;;;21.44;52.26;100854.06;5106391;28;19927;-58
2021/08/20 05:04:27;;;;;;;;;;;;;;;21.45;52.27;100858.50;5108580;27;20400;-58
2021/08/20 05:06:56;;;;;;;;;;;;;;;21.45;52.20;100857.66;5104433;28;19936;-55
2021/08/20 05:09:24;;;;;;;;;;;;;;;21.46;52.21;100862.03;5105772;27;19985;-58
2021/08/20 05:11:52;;;;;;;;;;;;;;;21.45;52.28;100865.72;5101211;27;20276;-57
2021/08/20 05:14:21;;;;;;;;;;;;;;;21.44;52.28;100862.16;5102492;27;20006;-55
2021/08/20 05:16:49;;;;;;;;;;;;;;;21.42;52.34;100861.41;5096807;28;19924;-59
2021/08/20 05:19:17;;;;;;;;;;;;;;;21.42;52.49;100865.91;5107230;28;19923;-57
2021/08/20 05:21:45;;;;;;;;;;;;;;;21.47;52.30;100866.44;5104248;28;19974;-55
2021/08/20 05:24:13;;;;;;;;;;;;;;;21.50;52.85;100868.94;5105385;28;20314;-58
2021/08/20 05:26:41;;;;;;;;;;;;;;;21.51;52.76;100878.72;5099880;28;20408;-56
2021/08/20 05:29:09;;;;;;;;;;;;;;;21.58;53.17;100874.66;5102633;27;19997;-57
2021/08/20 05:31:38;;;;;;;;;;;;;;;21.67;54.07;100868.59;5104066;27;19936;-54
2021/08/20 05:34:06;;;;;;;;;;;;;;;21.72;54.80;100874.53;5103011;27;20471;-56
2021/08/20 05:36:34;;;;;;;;;;;;;;;21.75;54.62;100880.63;5112214;27;19985;-57
2021/08/20 05:39:02;;;;;;;;;;;;;;;21.77;54.26;100878.72;5106291;28;19932;-58
2021/08/20 05:41:31;;;;;;;;;;;;;;;21.79;53.93;100879.47;5109516;28;19969;-58
2021/08/20 05:43:59;;;;;;;;;;;;;;;21.79;54.66;100879.47;5103172;28;19950;-58
2021/08/20 05:46:26;;;;;;;;;;;;;;;21.82;54.69;100882.78;5109178;28;19955;-58
2021/08/20 05:48:57;;;;;;;;;;;;;;;21.84;54.30;100877.28;5106247;28;19936;-53
2021/08/20 05:51:25;;;;;;;;;;;;;;;21.85;54.39;100884.38;5105221;27;19939;-56
2021/08/20 05:53:53;;;;;;;;;;;;;;;21.84;54.52;100883.53;5106307;27;19984;-54
2021/08/20 05:56:21;;;;;;;;;;;;;;;21.87;54.51;100882.44;5095918;28;19928;-56
2021/08/20 05:58:52;;;;;;;;;;;;;;;21.86;54.42;100875.34;5103185;28;19928;-54
2021/08/20 06:01:20;;;;;;;;;;;;;;;21.87;54.27;100879.75;5103794;28;20463;-55
2021/08/20 06:03:48;;;;;;;;;;;;;;;21.85;54.11;100887.06;5109456;28;19928;-55
2021/08/20 06:06:31;;;;;;;;;;;;;;;21.83;54.15;100895.28;5098146;28;19928;-53
2021/08/20 06:08:59;;;;;;;;;;;;;;;21.84;54.40;100898.81;5110064;28;19935;-55
2021/08/20 06:11:27;;;;;;;;;;;;;;;21.83;53.88;100895.28;5093212;28;19928;-55
2021/08/20 06:13:55;;;;;;;;;;;;;;;21.82;54.18;100888.16;5112060;28;19924;-53
2021/08/20 06:16:23;;;;;;;;;;;;;;;21.83;54.22;100895.28;5107747;28;20011;-55
2021/08/20 06:18:51;;;;;;;;;;;;;;;21.81;54.13;100894.50;5103109;28;19939;-53
2021/08/20 06:21:20;;;;;;;;;;;;;;;21.86;53.81;100894.19;5104253;28;19935;-52
2021/08/20 06:23:50;;;;;;;;;;;;;;;21.85;53.89;100896.03;5107820;28;19927;-53
2021/08/20 06:26:18;;;;;;;;;;;;;;;21.86;53.49;100903.13;5100974;28;20018;-55
2021/08/20 06:28:46;;;;;;;;;;;;;;;21.87;53.40;100907.53;5103956;28;19935;-55
2021/08/20 06:31:15;;;;;;;;;;;;;;;21.87;53.35;100915.63;5105548;28;19981;-55
2021/08/20 06:33:43;;;;;;;;;;;;;;;21.88;53.45;100920.03;5109492;28;19927;-54
2021/08/20 06:36:11;;;;;;;;;;;;;;;21.90;53.32;100914.53;5110071;28;19927;-56
2021/08/20 06:38:39;;;;;;;;;;;;;;;21.88;53.21;100919.19;5101371;28;19924;-56
2021/08/20 06:41:08;;;;;;;;;;;;;;;21.86;53.01;100913.88;5104306;28;19950;-55
2021/08/20 06:43:36;;;;;;;;;;;;;;;21.87;52.93;100910.22;5114880;28;19927;-56
2021/08/20 06:46:04;;;;;;;;;;;;;;;21.91;52.78;100913.56;5105739;28;19970;-55
2021/08/20 06:48:33;;;;;;;;;;;;;;;21.91;52.57;100916.25;5108444;28;19924;-56
2021/08/20 06:51:01;;;;;;;;;;;;;;;21.87;52.27;100914.78;5102752;28;19934;-56
2021/08/20 06:53:29;;;;;;;;;;;;;;;21.71;51.21;100921.25;5099010;28;19949;-55
2021/08/20 06:55:57;;;;;;;;;;;;;;;21.65;50.61;100923.53;5103886;28;20766;-59
2021/08/20 06:58:26;;;;;;;;;;;;;;;21.63;50.79;100918.25;5104971;28;20010;-57
2021/08/20 07:00:54;;;;;;;;;;;;;;;21.65;51.15;100926.22;5104693;28;19928;-59
2021/08/20 07:03:22;;;;;;;;;;;;;;;21.61;51.02;100925.56;5108644;28;19928;-53
2021/08/20 07:05:51;;;;;;;;;;;;;;;21.59;51.07;100929.34;5097652;28;19928;-56
2021/08/20 07:08:20;;;;;;;;;;;;;;;21.60;50.80;100921.16;5102556;28;19977;-57
2021/08/20 07:10:48;;;;;;;;;;;;;;;21.63;50.38;100922.75;5101630;28;19928;-57
2021/08/20 07:13:17;;;;;;;;;;;;;;;21.63;50.26;100925.44;5103442;28;20010;-59
2021/08/20 07:15:46;;;;;;;;;;;;;;;21.57;50.51;100921.38;5097873;28;20030;-59
2021/08/20 07:18:15;;;;;;;;;;;;;;;21.61;50.35;100922.88;5096959;28;20679;-54
2021/08/20 07:20:43;;;;;;;;;;;;;;;21.60;50.14;100929.22;5094289;28;20179;-59
2021/08/20 07:23:11;;;;;;;;;;;;;;;21.64;50.03;100924.50;5100448;28;19924;-59
2021/08/20 07:25:39;;;;;;;;;;;;;;;21.69;50.22;100925.88;5098685;28;19928;-57
2021/08/20 07:28:07;;;;;;;;;;;;;;;21.65;50.36;100931.59;5098406;28;19992;-58
2021/08/20 07:30:35;;;;;;;;;;;;;;;21.71;49.66;100944.63;5109252;28;19950;-55
2021/08/20 07:33:04;;;;;;;;;;;;;;;21.75;49.42;100940.75;5105983;28;19923;-57
2021/08/20 07:35:37;;;;;;;;;;;;;;;21.72;50.10;100936.44;5097869;28;19930;-57
2021/08/20 07:38:05;;;;;;;;;;;;;;;21.61;49.35;100939.03;5092203;28;19959;-56
2021/08/20 07:40:33;;;;;;;;;;;;;;;21.58;49.50;100939.25;5107399;28;20003;-57
2021/08/20 07:43:01;;;;;;;;;;;;;;;21.57;49.44;100953.69;5099750;28;19967;-56
2021/08/20 07:45:29;;;;;;;;;;;;;;;21.55;49.39;100951.09;5101929;28;20003;-56
2021/08/20 07:47:57;;;;;;;;;;;;;;;21.53;49.57;100944.91;5107592;28;19989;-56
2021/08/20 07:50:27;;;;;;;;;;;;;;;21.52;48.81;100956.69;5105801;28;19953;-57
2021/08/20 07:52:55;;;;;;;;;;;;;;;21.53;48.51;100958.38;5105187;28;20331;-56
2021/08/20 07:55:23;;;;;;;;;;;;;;;21.55;48.62;100951.09;5107791;28;19928;-55
2021/08/20 07:57:52;;;;;;;;;;;;;;;21.53;48.69;100953.00;5111930;27;19931;-54
2021/08/20 08:00:21;;;;;;;;;;;;;;;21.57;48.59;100958.22;5106194;28;19927;-57
2021/08/20 08:02:49;;;;;;;;;;;;;;;21.60;48.46;100958.81;5109342;28;20004;-56
2021/08/20 08:05:19;;;;;;;;;;;;;;;21.68;48.05;100966.38;5106196;28;19924;-49
2021/08/20 08:07:49;;;;;;;;;;;;;;;21.70;48.20;100950.97;5107359;28;19924;-57
2021/08/20 08:10:18;;;;;;;;;;;;;;;21.72;47.60;100960.66;5115904;28;19970;-56
2021/08/20 08:12:46;;;;;;;;;;;;;;;21.78;47.30;100964.75;5108229;28;19931;-57
2021/08/20 08:15:15;;;;;;;;;;;;;;;21.83;47.27;100959.91;5109963;28;19923;-57
2021/08/20 08:17:43;;;;;;;;;;;;;;;21.86;47.01;100956.97;5105338;28;19935;-54
2021/08/20 08:20:12;;;;;;;;;;;;;;;21.88;47.00;100955.03;5109668;28;19970;-57
2021/08/20 08:22:40;;;;;;;;;;;;;;;21.92;46.98;100965.59;5112682;28;19928;-57
2021/08/20 08:25:10;;;;;;;;;;;;;;;21.95;46.71;100962.69;5105197;28;19927;-57
2021/08/20 08:27:51;;;;;;;;;;;;;;;21.97;46.82;100966.13;5105449;28;19932;-57
2021/08/20 08:30:20;;;;;;;;;;;;;;;22.00;46.08;100969.47;5104778;28;19924;-56
2021/08/20 08:32:47;;;;;;;;;;;;;;;21.99;46.00;100972.25;5106342;28;19976;-49
2021/08/20 08:35:16;;;;;;;;;;;;;;;21.98;45.95;100973.22;5109393;28;19934;-56
2021/08/20 08:37:44;;;;;;;;;;;;;;;21.95;46.15;100979.69;5109781;27;19954;-56
2021/08/20 08:40:14;;;;;;;;;;;;;;;21.93;46.11;100983.47;5107671;28;19928;-57
2021/08/20 08:42:42;;;;;;;;;;;;;;;21.91;46.22;100991.66;5107787;28;19931;-56
2021/08/20 08:45:10;;;;;;;;;;;;;;;21.88;46.02;100989.19;5109722;28;19931;-57
2021/08/20 08:47:38;;;;;;;;;;;;;;;21.86;46.26;100989.28;5110101;28;19927;-56
2021/08/20 08:50:08;;;;;;;;;;;;;;;21.85;46.04;100994.78;5108974;27;19932;-56
2021/08/20 08:52:36;;;;;;;;;;;;;;;21.82;45.86;100992.31;5109574;28;19980;-56
2021/08/20 08:55:05;;;;;;;;;;;;;;;21.80;46.10;100994.25;5108781;28;19938;-57
2021/08/20 08:57:35;;;;;;;;;;;;;;;21.80;46.00;100997.81;5107455;27;19939;-57
2021/08/20 09:00:04;;;;;;;;;;;;;;;21.83;46.06;100996.75;5103560;28;20116;-57
2021/08/20 09:02:33;;;;;;;;;;;;;;;21.84;45.82;101001.13;5106996;28;20574;-57
2021/08/20 09:05:02;;;;;;;;;;;;;;;21.83;45.84;101000.28;5112908;28;19932;-56
2021/08/20 09:07:31;;;;;;;;;;;;;;;21.96;45.71;101002.09;5108694;28;19935;-54
2021/08/20 09:10:15;;;;;;;;;;;;;;;21.96;45.64;100996.69;5111140;28;19928;-56
2021/08/20 09:12:52;;;;;;;;;;;;;;;21.97;45.64;101001.13;5101398;28;20383;-56
2021/08/20 09:15:21;;;;;;;;;;;;;;;21.98;45.49;101001.00;5106419;28;20025;-56
2021/08/20 09:17:50;;;;;;;;;;;;;;;21.99;45.22;100996.50;5110111;28;19983;-56
2021/08/20 09:20:20;;;;;;;;;;;;;;;22.09;45.14;100996.69;5105893;28;20025;-57
2021/08/20 09:22:49;;;;;;;;;;;;;;;22.11;44.67;100998.31;5106990;27;19977;-57
2021/08/20 09:25:34;;;;;;;;;;;;;;;22.19;45.26;100995.94;5108919;27;20444;-57
2021/08/20 09:28:10;;;;;;;;;;;;;;;22.21;44.46;101002.06;5107009;28;19996;-57
2021/08/20 09:30:38;;;;;;;;;;;;;;;22.23;44.75;101001.94;5111396;28;19951;-57
2021/08/20 09:33:10;;;;;;;;;;;;;;;22.18;45.13;101004.97;5102737;28;19928;-57
2021/08/20 09:35:39;;;;;;;;;;;;;;;22.11;43.85;101003.69;5102926;28;19923;-57
2021/08/20 09:38:08;;;;;;;;;;;;;;;22.06;42.47;101005.84;5108677;28;19977;-54
2021/08/20 09:40:39;;;;;;;;;;;;;;;22.02;42.54;101009.75;5098915;28;19928;-57
2021/08/20 09:43:11;;;;;;;;;;;;;;;22.00;42.85;101001.78;5093141;28;19923;-55
2021/08/20 09:45:55;;;;;;;;;;;;;;;21.98;43.27;101002.84;5104158;28;19939;-57
2021/08/20 09:48:39;;;;;;;;;;;;;;;21.94;43.55;101004.06;5102704;28;19938;-56
2021/08/20 09:51:08;;;;;;;;;;;;;;;21.98;46.02;101010.94;5099429;28;19938;-55
2021/08/20 09:53:36;;;;;;;;;;;;;;;21.95;45.39;101000.41;5106212;28;19931;-56
2021/08/20 09:56:05;;;;;;;;;;;;;;;21.93;46.64;101005.00;5104309;28;19927;-53
2021/08/20 09:58:33;;;;;;;;;;;;;;;21.92;46.84;101014.06;5110287;28;19942;-56
2021/08/20 10:01:05;;;;;;;;;;;;;;;21.92;47.26;101006.84;5103651;28;19932;-54
2021/08/20 10:03:33;;;;;;;;;;;;;;;21.93;47.61;101011.28;5104252;28;19989;-55
2021/08/20 10:06:02;;;;;;;;;;;;;;;21.94;47.62;101010.28;5103200;28;19928;-53
2021/08/20 10:08:31;;;;;;;;;;;;;;;21.94;48.22;101012.13;5111471;28;19984;-57
2021/08/20 10:10:59;;;;;;;;;;;;;;;21.93;48.65;101010.41;5093436;28;19993;-55
2021/08/20 10:13:28;;;;;;;;;;;;;;;21.96;48.32;101007.47;5112108;28;19927;-56
2021/08/20 10:15:59;;;;;;;;;;;;;;;22.00;48.41;101001.78;5104384;28;19928;-56
2021/08/20 10:18:30;;;;;;;;;;;;;;;22.00;48.55;101011.69;5105912;28;19999;-56
2021/08/20 10:20:59;;;;;;;;;;;;;;;22.00;48.56;101009.84;5099940;28;19963;-56
2021/08/20 10:23:27;;;;;;;;;;;;;;;22.01;48.61;101019.66;5094701;28;19959;-56
2021/08/20 10:25:56;;;;;;;;;;;;;;;22.01;48.68;101010.72;5105854;28;19928;-56
2021/08/20 10:28:25;;;;;;;;;;;;;;;22.03;48.97;101008.78;5115086;28;19928;-56
2021/08/20 10:30:54;;;;;;;;;;;;;;;22.07;48.92;101015.66;5100984;28;19960;-56
2021/08/20 10:33:33;;;;;;;;;;;;;;;22.12;49.08;101010.81;5111625;28;19935;-54
2021/08/20 10:36:02;;;;;;;;;;;;;;;22.13;48.84;101014.34;5107994;28;19953;-56
2021/08/20 10:38:31;;;;;;;;;;;;;;;22.12;49.21;101012.66;5098303;28;19928;-56
2021/08/20 10:41:09;;;;;;;;;;;;;;;22.09;49.41;101016.44;5111532;28;19999;-56
2021/08/20 10:43:47;;;;;;;;;;;;;;;22.04;49.54;101023.97;5110749;28;19928;-56
2021/08/20 10:46:30;;;;;;;;;;;;;;;22.02;49.52;101032.16;5105318;28;19924;-56
2021/08/20 10:49:14;;;;;;;;;;;;;;;22.01;49.48;101030.44;5099760;28;19950;-61
2021/08/20 10:52:02;;;;;;;;;;;;;;;22.00;49.57;101039.47;5101497;28;20501;-55
2021/08/20 10:54:57;;;;;;;;;;;;;;;21.98;49.84;101038.72;5099381;28;19958;-52
2021/08/20 10:57:44;;;;;;;;;;;;;;;22.00;49.57;101035.94;5077412;28;20413;-53
2021/08/20 11:00:23;;;;;;;;;;;;;;;21.98;49.66;101040.56;5097778;28;20488;-56
2021/08/20 11:02:52;;;;;;;;;;;;;;;21.97;49.89;101037.03;5107505;28;19924;-56
2021/08/20 11:05:36;;;;;;;;;;;;;;;21.98;50.01;101024.41;5102556;28;19962;-55
2021/08/20 11:08:25;;;;;;;;;;;;;;;22.03;49.94;101027.63;5113986;28;19938;-56
2021/08/20 11:10:54;;;;;;;;;;;;;;;22.21;49.68;101029.00;5101229;28;19996;-56
2021/08/20 11:13:22;;;;;;;;;;;;;;;22.17;49.71;101029.34;5111107;28;19928;-56
2021/08/20 11:15:51;;;;;;;;;;;;;;;22.15;49.70;101039.34;5109156;28;19933;-55
2021/08/20 11:18:39;;;;;;;;;;;;;;;22.10;49.71;101042.38;5102818;28;19934;-57
2021/08/20 11:21:07;;;;;;;;;;;;;;;22.09;49.82;101032.59;5107168;28;20046;-57
2021/08/20 11:23:37;;;;;;;;;;;;;;;22.10;49.71;101038.81;5113052;28;20541;-56
2021/08/20 11:26:05;;;;;;;;;;;;;;;22.10;49.72;101030.75;5102811;28;19927;-51
2021/08/20 11:28:34;;;;;;;;;;;;;;;22.11;49.79;101032.47;5113020;28;19935;-56
2021/08/20 11:31:04;;;;;;;;;;;;;;;22.09;50.02;101040.66;5108808;27;19939;-56
2021/08/20 11:33:33;;;;;;;;;;;;;;;22.08;49.75;101041.63;5095588;28;20001;-55
2021/08/20 11:36:03;;;;;;;;;;;;;;;22.10;49.91;101039.66;5103186;28;20577;-54
2021/08/20 11:38:34;;;;;;;;;;;;;;;22.14;49.70;101045.72;5108048;27;19927;-54
2021/08/20 11:41:08;;;;;;;;;;;;;;;22.15;49.52;101052.81;5105539;28;19928;-53
2021/08/20 11:43:54;;;;;;;;;;;;;;;22.17;49.37;101048.22;5108207;28;19928;-58
2021/08/20 11:46:23;;;;;;;;;;;;;;;22.19;49.76;101047.13;5102820;27;19949;-57
2021/08/20 11:48:53;;;;;;;;;;;;;;;22.22;49.87;101056.81;5100692;28;19931;-56
2021/08/20 11:51:25;;;;;;;;;;;;;;;22.23;49.87;101050.44;5108378;28;19943;-55
2021/08/20 11:53:53;;;;;;;;;;;;;;;22.21;49.96;101053.25;5104844;28;19928;-56
2021/08/20 11:56:23;;;;;;;;;;;;;;;22.20;49.87;101056.91;5106943;27;19928;-53
2021/08/20 11:58:51;;;;;;;;;;;;;;;22.20;49.51;101056.91;5107544;27;19928;-54
2021/08/20 12:01:24;;;;;;;;;;;;;;;22.21;50.07;101053.25;5100538;28;19928;-57
2021/08/20 12:03:53;;;;;;;;;;;;;;;22.24;49.76;101062.94;5098373;28;19963;-55
2021/08/20 12:06:21;;;;;;;;;;;;;;;22.25;49.41;101059.28;5110194;28;19931;-56
2021/08/20 12:08:49;;;;;;;;;;;;;;;22.29;49.76;101055.38;5108091;27;20414;-55
2021/08/20 12:11:20;;;;;;;;;;;;;;;22.28;50.21;101066.28;5103791;27;19954;-56
2021/08/20 12:13:51;;;;;;;;;;;;;;;22.27;49.82;101067.25;5104933;28;19963;-57
2021/08/20 12:16:35;;;;;;;;;;;;;;;22.41;49.14;101067.16;5094102;27;19931;-53
2021/08/20 12:19:11;;;;;;;;;;;;;;;22.34;49.58;101065.84;5106851;27;19950;-56
2021/08/20 12:21:39;;;;;;;;;;;;;;;22.29;50.10;101071.56;5105877;28;19939;-50
2021/08/20 12:24:07;;;;;;;;;;;;;;;22.27;50.14;101072.63;5102412;28;19948;-55
2021/08/20 12:26:35;;;;;;;;;;;;;;;22.25;49.96;101069.19;5107838;27;19939;-56
2021/08/20 12:29:14;;;;;;;;;;;;;;;22.26;50.28;101070.91;5101919;28;22290;-52
2021/08/20 12:31:54;;;;;;;;;;;;;;;22.17;46.08;101070.59;5103170;28;20341;-53
2021/08/20 12:34:26;;;;;;;;;;;;;;;21.90;41.25;101076.09;5104967;28;19932;-50
2021/08/20 12:36:54;;;;;;;;;;;;;;;21.69;41.84;101078.47;5103503;27;20367;-53
2021/08/20 12:39:32;;;;;;;;;;;;;;;21.58;41.78;101073.84;5102782;28;19928;-56
2021/08/20 12:42:15;;;;;;;;;;;;;;;21.44;41.50;101076.56;5104864;28;19932;-58
2021/08/20 12:44:45;;;;;;;;;;;;;;;21.53;41.54;101076.78;5099363;27;19927;-50
2021/08/20 12:47:13;;;;;;;;;;;;;;;21.71;41.28;101079.25;5099532;28;19928;-54
2021/08/20 12:50:00;;;;;;;;;;;;;;;21.85;41.17;101084.53;5104834;27;19935;-55
2021/08/20 12:52:28;;;;;;;;;;;;;;;21.92;41.11;101076.00;5102446;28;20026;-48
2021/08/20 12:54:56;;;;;;;;;;;;;;;21.96;41.03;101072.13;5102792;27;19951;-54